Los Angeles, CA (90009)

9:35 AM PDT on September 23, 2014 (GMT -0700)
Los Angeles International | Change Station
CLOSE
Current Station
Airport
Location: Los Angeles,
Elevation: 105 ft
Nearby Weather Stations

Elev 105 ft 33.94 °N, 118.39 °W | Updated 42 minutes ago

Scattered Clouds
Scattered Clouds
67 °F
Feels Like 67 °F
N
4
Wind Variable Wind from SW

Today
High -- | Low -- °F
--% Chance of Precip.
Yesterday
High -- | Low -- °F
Precip. -- in
6:42 AM 6:48 PM
Waning Crescent, 0% visible
Pressure 29.99 in
Visibility 7.0 miles
Clouds Scattered Clouds 900 ft
Dew Point 63 °F
Humidity 88%
Rainfall 0.00 in
Snow Depth 0 in , 0 in , 0 in
UV 2 out of 12
Pollen 5.70 out of 12
Ozone Good
Flu Activity Not available.
METAR KLAX 231553Z 23003KT 7SM SCT009 19/17 A2999 RMK AO2 SLP153 T01920172 $

More Conditions Fewer Conditions

Pressure 29.99 in
Visibility 7.0 miles
Clouds Scattered Clouds 900 ft
Dew Point 63 °F
Humidity 88%
Rainfall 0.00 in
Snow Depth 0 in , 0 in , 0 in
UV 2 out of 12
Pollen 5.70 out of 12
Ozone Good
Flu Activity Not available.
METAR KLAX 231553Z 23003KT 7SM SCT009 19/17 A2999 RMK AO2 SLP153 T01920172 $

More Conditions Fewer Conditions

10-Day Weather Forecast

Almanac

Astronomy

Sep. 23, 2014 Rise Set
Actual Time 6:42 AM PDT 6:48 PM PDT
Civil Twilight 6:17 AM PDT 7:13 PM PDT
Nautical Twilight 5:48 AM PDT 7:42 PM PDT
Astronomical Twilight 5:18 AM PDT 8:12 PM PDT
Moon 6:11 AM PDT 6:31 PM PDT
Length of Visible Light 12h 56m
Length of Day
12h 06m
Tomorrow will be 2m 6s shorter.
Waning Crescent, 0% of the Moon is Illuminated
Today
Waning Crescent
Sep 24
New
Oct 1
First Quarter
Oct 8
Full
Oct 15
Last Quarter

Today's Extremes

State Highs State Lows

Community

WunderPhotos

Upload Photos

1,755,744 photos uploaded!

WunderBlogs® & News

By Dr. Jeff Masters
Director of Meteorology, Weather Underground
By Kari Strenfel
Meteorologist, Weather Underground
By Christopher C. Burt
Weather Historian, Weather Underground
September 23, 2014
September 23, 2014
September 23, 2014

Nearby

Air Quality

  Air Quality AQ Index Pollutant
Yesterday Good
OZONE
Current Good
OZONE
Tuesday Good
PM10
Tuesday Good
OZONE
Tuesday Good
CO
Tuesday Good
NO2

Snow Depth

Station Depth Elevation
Ebbetts Pass 0 in 8700 ft
Hagan's Meadow 0 in 8000 ft
Tahoe City Cross 0 in 6750 ft
Summit Meadow 1 in 9122 ft
Rubicon #2 0 in 7500 ft

Earthquake Activity

City Distance Mag. Time & Date
Big Bear Lake, California 81 miles 2.5 7:26 AM PDT
2014-09-22
Borrego Springs, California 125 miles 2.6 7:34 AM PDT
2014-09-21
Minimum magnitude displayed is 2.5.

Coastal Water Temperatures

Place Temperature
Santa Monica Pier 70.0 °F
Los Angeles, CA 66.9 °F
La Jolla, CA 69.1 °F

Nearby Weather Stations